createdAt,value
2018-10-01T00:02:02.096Z,1.90
2018-10-01T00:04:31.820Z,1.50
2018-10-01T00:07:01.860Z,1.50
2018-10-01T00:09:31.649Z,1.50
2018-10-01T00:12:01.727Z,1.30
2018-10-01T00:14:31.563Z,1.30
2018-10-01T00:17:01.355Z,1.10
2018-10-01T00:19:36.358Z,0.80
2018-10-01T00:22:11.488Z,1.00
2018-10-01T00:24:41.285Z,1.00
2018-10-01T00:27:11.368Z,0.83
2018-10-01T00:29:41.097Z,1.00
2018-10-01T00:32:10.876Z,1.10
2018-10-01T00:34:40.632Z,0.93
2018-10-01T00:37:10.395Z,1.23
2018-10-01T00:39:40.530Z,0.90
2018-10-01T00:42:10.342Z,1.20
2018-10-01T00:44:40.311Z,1.10
2018-10-01T00:47:10.076Z,1.07
2018-10-01T00:49:39.856Z,1.20
2018-10-01T00:52:09.646Z,1.10
2018-10-01T00:54:39.402Z,1.23
2018-10-01T00:57:09.266Z,1.20
2018-10-01T00:59:39.021Z,1.00
2018-10-01T01:02:08.845Z,1.03
2018-10-01T01:04:38.606Z,1.50
2018-10-01T01:07:08.490Z,1.10
2018-10-01T01:09:38.363Z,1.53
2018-10-01T01:12:08.221Z,1.17
2018-10-01T01:14:38.475Z,1.30
2018-10-01T01:17:09.029Z,1.30
2018-10-01T01:19:38.914Z,1.30
2018-10-01T01:22:08.776Z,1.47
2018-10-01T01:24:38.612Z,1.30
2018-10-01T01:27:08.442Z,1.50
2018-10-01T01:29:38.206Z,1.37
2018-10-01T01:32:08.408Z,1.57
2018-10-01T01:34:38.426Z,1.40
2018-10-01T01:37:08.194Z,1.63
2018-10-01T01:39:37.980Z,1.60
2018-10-01T01:42:07.762Z,1.47
2018-10-01T01:44:37.745Z,1.70
2018-10-01T01:47:08.032Z,1.53
2018-10-01T01:49:37.804Z,1.50
2018-10-01T01:52:08.072Z,1.60
2018-10-01T01:54:37.888Z,1.70
2018-10-01T01:57:07.750Z,1.57
2018-10-01T01:59:37.496Z,2.13
2018-10-01T02:02:07.383Z,1.67
2018-10-01T02:04:37.216Z,1.80
2018-10-01T02:07:07.083Z,1.70
2018-10-01T02:09:37.542Z,1.80
2018-10-01T02:12:07.657Z,1.93
2018-10-01T02:14:37.457Z,1.73
2018-10-01T02:17:07.638Z,1.60
2018-10-01T02:19:37.443Z,1.97
2018-10-01T02:22:07.757Z,1.83
2018-10-01T02:24:37.553Z,2.00
2018-10-01T02:27:07.630Z,1.70
2018-10-01T02:29:37.497Z,1.60
2018-10-01T02:32:07.611Z,1.30
2018-10-01T02:34:37.433Z,1.50
2018-10-01T02:37:07.676Z,1.30
2018-10-01T02:39:37.473Z,1.33
2018-10-01T02:42:07.234Z,1.20
2018-10-01T02:44:36.971Z,1.17
2018-10-01T02:47:07.321Z,1.40
2018-10-01T02:49:37.065Z,1.37
2018-10-01T02:52:12.281Z,1.13
2018-10-01T02:54:42.029Z,1.30
2018-10-01T02:57:11.796Z,1.80
2018-10-01T02:59:41.558Z,1.90
2018-10-01T03:02:11.346Z,1.87
2018-10-01T03:04:41.085Z,1.80
2018-10-01T03:07:10.845Z,1.70
2018-10-01T03:09:40.601Z,1.87
2018-10-01T03:12:10.389Z,1.83
2018-10-01T03:14:40.385Z,2.37
2018-10-01T03:17:10.161Z,2.50
2018-10-01T03:19:39.969Z,2.63
2018-10-01T03:22:09.727Z,3.17
2018-10-01T03:24:39.477Z,3.27
2018-10-01T03:27:09.275Z,3.40
2018-10-01T03:29:39.227Z,3.90
2018-10-01T03:32:09.001Z,4.27
2018-10-01T03:34:38.829Z,4.00
2018-10-01T03:37:08.701Z,3.70
2018-10-01T03:39:38.479Z,4.27
2018-10-01T03:42:08.601Z,4.70
2018-10-01T03:44:38.401Z,5.10
2018-10-01T03:47:08.906Z,5.17
2018-10-01T03:49:38.853Z,5.00
2018-10-01T03:52:08.655Z,4.80
2018-10-01T03:54:38.464Z,4.50
2018-10-01T03:57:08.739Z,4.33
2018-10-01T03:59:38.528Z,4.20
2018-10-01T04:02:08.518Z,4.80
2018-10-01T04:04:38.325Z,4.83
2018-10-01T04:07:08.319Z,5.13
2018-10-01T04:09:38.311Z,5.03
2018-10-01T04:12:08.435Z,5.53
2018-10-01T04:14:38.367Z,5.70
2018-10-01T04:17:08.367Z,5.33
2018-10-01T04:19:38.127Z,5.40
2018-10-01T04:22:07.943Z,5.63
2018-10-01T04:24:37.715Z,4.83
2018-10-01T04:27:07.672Z,5.87
2018-10-01T04:29:37.441Z,11.33
2018-10-01T04:32:07.295Z,5.20
2018-10-01T04:34:37.222Z,5.50
2018-10-01T04:37:07.265Z,5.43
2018-10-01T04:39:38.417Z,4.30
2018-10-01T04:42:08.286Z,4.20
2018-10-01T04:44:38.099Z,5.07
2018-10-01T04:47:08.016Z,4.60
2018-10-01T04:49:37.843Z,4.80
2018-10-01T04:52:07.800Z,4.80
2018-10-01T04:54:37.591Z,5.10
2018-10-01T04:57:07.423Z,4.70
2018-10-01T04:59:37.317Z,4.80
2018-10-01T05:02:07.445Z,5.37
2018-10-01T05:04:37.253Z,4.50
2018-10-01T05:07:07.140Z,4.73
2018-10-01T05:09:36.887Z,5.23
2018-10-01T05:12:06.778Z,4.70
2018-10-01T05:14:36.518Z,5.00
2018-10-01T05:17:06.808Z,5.20
2018-10-01T05:19:36.552Z,4.73
2018-10-01T05:22:06.313Z,5.20
2018-10-01T05:24:36.058Z,4.90
2018-10-01T05:27:06.306Z,4.63
2018-10-01T05:29:36.170Z,5.00
2018-10-01T05:32:06.032Z,4.93
2018-10-01T05:34:35.787Z,5.03
2018-10-01T05:37:05.825Z,5.23
2018-10-01T05:39:35.758Z,5.33
2018-10-01T05:42:05.586Z,4.93
2018-10-01T05:44:35.376Z,4.50
2018-10-01T05:47:05.481Z,4.60
2018-10-01T05:49:35.354Z,4.63
2018-10-01T05:52:05.108Z,4.43
2018-10-01T05:54:34.900Z,4.07
2018-10-01T05:57:04.705Z,4.30
2018-10-01T05:59:34.465Z,4.50
2018-10-01T06:02:04.334Z,4.20
2018-10-01T06:04:34.110Z,4.07
2018-10-01T06:07:03.911Z,4.20
2018-10-01T06:09:33.736Z,4.70
2018-10-01T06:12:03.579Z,3.70
2018-10-01T06:14:33.562Z,4.53
2018-10-01T06:17:03.326Z,4.40
2018-10-01T06:19:33.102Z,4.00
2018-10-01T06:22:02.864Z,3.83
2018-10-01T06:24:32.663Z,3.87
2018-10-01T06:27:02.496Z,4.30
2018-10-01T06:29:32.716Z,4.00
2018-10-01T06:32:02.495Z,4.07
2018-10-01T06:34:32.348Z,3.80
2018-10-01T06:37:02.110Z,4.37
2018-10-01T06:39:31.894Z,4.87
2018-10-01T06:42:01.734Z,4.07
2018-10-01T06:44:31.610Z,4.40
2018-10-01T06:47:01.529Z,4.47
2018-10-01T06:49:31.330Z,3.93
2018-10-01T06:52:01.070Z,4.10
2018-10-01T06:54:30.814Z,4.03
2018-10-01T06:57:00.618Z,4.70
2018-10-01T06:59:30.390Z,3.80
2018-10-01T07:02:00.174Z,4.20
2018-10-01T07:04:29.914Z,4.10
2018-10-01T07:06:59.702Z,3.93
2018-10-01T07:09:29.524Z,4.23
2018-10-01T07:11:59.510Z,4.30
2018-10-01T07:14:29.341Z,4.20
2018-10-01T07:16:59.196Z,3.90
2018-10-01T07:19:29.140Z,4.10
2018-10-01T07:21:58.914Z,4.37
2018-10-01T07:24:28.670Z,3.83
2018-10-01T07:26:58.441Z,4.57
2018-10-01T07:29:28.490Z,3.83
2018-10-01T07:32:08.102Z,4.00
2018-10-01T07:34:37.823Z,3.87
2018-10-01T07:37:08.050Z,4.03
2018-10-01T07:39:37.821Z,4.33
2018-10-01T07:42:08.164Z,3.90
2018-10-01T07:44:37.932Z,4.83
2018-10-01T07:47:07.726Z,4.50
2018-10-01T07:49:37.578Z,4.33
2018-10-01T07:52:07.532Z,4.63
2018-10-01T07:54:37.472Z,5.30
2018-10-01T07:57:07.665Z,4.93
2018-10-01T07:59:37.858Z,4.80
2018-10-01T08:02:08.453Z,5.20
2018-10-01T08:04:38.378Z,4.80
2018-10-01T08:07:08.477Z,4.90
2018-10-01T08:09:38.257Z,4.93
2018-10-01T08:12:08.066Z,4.67
2018-10-01T08:14:37.907Z,4.90
2018-10-01T08:17:07.846Z,4.90
2018-10-01T08:19:37.591Z,4.80
2018-10-01T08:22:07.393Z,4.60
2018-10-01T08:24:37.157Z,4.90
2018-10-01T08:27:07.460Z,5.80
2018-10-01T08:29:37.367Z,5.87
2018-10-01T08:32:07.490Z,5.37
2018-10-01T08:34:37.793Z,5.30
2018-10-01T08:37:07.679Z,5.73
2018-10-01T08:39:37.480Z,5.97
2018-10-01T08:42:07.494Z,6.10
2018-10-01T08:44:37.365Z,6.00
2018-10-01T08:47:07.345Z,6.17
2018-10-01T08:49:42.311Z,5.53
2018-10-01T08:53:15.100Z,5.53
2018-10-01T08:55:45.135Z,6.10
2018-10-01T08:58:14.917Z,5.80
2018-10-01T09:00:44.680Z,5.63
2018-10-01T09:03:14.625Z,5.47
2018-10-01T09:05:44.393Z,5.87
2018-10-01T09:08:14.211Z,6.00
2018-10-01T09:10:44.097Z,6.33
2018-10-01T09:13:13.850Z,6.50
2018-10-01T09:15:43.605Z,6.60
2018-10-01T09:18:13.366Z,6.47
2018-10-01T09:20:43.167Z,6.30
2018-10-01T09:23:13.191Z,5.90
2018-10-01T09:25:43.156Z,6.50
2018-10-01T09:28:13.111Z,6.10
2018-10-01T09:30:42.894Z,5.90
2018-10-01T09:33:12.679Z,6.67
2018-10-01T09:35:42.498Z,7.03
2018-10-01T09:38:12.301Z,6.60
2018-10-01T09:40:42.316Z,6.57
2018-10-01T09:43:12.063Z,6.27
2018-10-01T09:45:41.906Z,6.00
2018-10-01T09:48:11.667Z,7.33
2018-10-01T09:50:41.451Z,6.70
2018-10-01T09:53:11.562Z,7.77
2018-10-01T09:55:41.524Z,6.50
2018-10-01T09:58:11.417Z,5.87
2018-10-01T10:00:47.385Z,6.60
2018-10-01T10:03:17.165Z,6.83
2018-10-01T10:05:47.069Z,7.33
2018-10-01T10:08:16.960Z,6.27
2018-10-01T10:10:47.149Z,7.00
2018-10-01T10:13:16.962Z,6.60
2018-10-01T10:15:46.758Z,6.50
2018-10-01T10:18:16.641Z,6.43
2018-10-01T10:20:46.485Z,7.03
2018-10-01T10:23:16.436Z,7.73
2018-10-01T10:25:46.252Z,7.43
2018-10-01T10:28:16.303Z,6.93
2018-10-01T10:30:46.223Z,7.50
2018-10-01T10:33:16.040Z,7.43
2018-10-01T10:35:45.833Z,6.90
2018-10-01T10:38:15.734Z,6.87
2018-10-01T10:40:45.611Z,7.67
2018-10-01T10:43:15.358Z,7.43
2018-10-01T10:45:45.138Z,7.50
2018-10-01T10:48:15.020Z,7.50
2018-10-01T10:50:44.888Z,8.00
2018-10-01T10:53:14.714Z,7.67
2018-10-01T10:55:44.483Z,7.30
2018-10-01T10:58:14.236Z,7.40
2018-10-01T11:00:44.046Z,7.13
2018-10-01T11:03:13.893Z,8.47
2018-10-01T11:05:43.656Z,8.20
2018-10-01T11:08:13.495Z,8.20
2018-10-01T11:10:43.785Z,8.37
2018-10-01T11:13:13.535Z,8.03
2018-10-01T11:15:43.313Z,8.60
2018-10-01T11:18:13.429Z,7.67
2018-10-01T11:20:43.377Z,8.57
2018-10-01T11:23:13.379Z,8.03
2018-10-01T11:25:43.358Z,8.50
2018-10-01T11:28:13.147Z,8.50
2018-10-01T11:30:42.922Z,7.90
2018-10-01T11:33:12.952Z,8.17
2018-10-01T11:35:42.880Z,8.07
2018-10-01T11:38:12.649Z,8.57
2018-10-01T11:40:42.442Z,8.43
2018-10-01T11:43:12.217Z,8.13
2018-10-01T11:45:42.077Z,8.93
2018-10-01T11:48:12.066Z,9.13
2018-10-01T11:50:42.210Z,9.47
2018-10-01T11:53:12.039Z,9.70
2018-10-01T11:55:41.807Z,10.70
2018-10-01T11:58:11.603Z,11.17
2018-10-01T12:00:41.466Z,10.63
2018-10-01T12:03:11.359Z,11.07
2018-10-01T12:05:41.290Z,10.97
2018-10-01T12:08:11.112Z,10.53
2018-10-01T12:10:40.868Z,10.43
2018-10-01T12:13:10.629Z,11.63
2018-10-01T12:15:40.536Z,10.07
2018-10-01T12:18:10.530Z,10.47
2018-10-01T12:20:40.741Z,10.67
2018-10-01T12:23:10.532Z,10.70
2018-10-01T12:26:20.323Z,11.07
2018-10-01T12:28:50.125Z,12.03
2018-10-01T12:31:19.913Z,11.40
2018-10-01T12:33:49.741Z,12.20
2018-10-01T12:36:19.580Z,12.67
2018-10-01T12:38:49.411Z,12.37
2018-10-01T12:41:19.521Z,12.43
2018-10-01T12:43:49.333Z,12.93
2018-10-01T12:46:19.103Z,13.03
2018-10-01T12:48:48.923Z,13.67
2018-10-01T12:51:18.888Z,14.33
2018-10-01T12:53:48.789Z,13.87
2018-10-01T12:56:18.607Z,14.10
2018-10-01T12:58:48.424Z,14.07
2018-10-01T13:01:18.345Z,14.87
2018-10-01T13:03:48.147Z,14.97
2018-10-01T13:06:18.177Z,15.67
2018-10-01T13:08:48.135Z,16.80
2018-10-01T13:11:17.921Z,17.37
2018-10-01T13:13:47.751Z,17.57
2018-10-01T13:16:17.652Z,16.37
2018-10-01T13:18:47.710Z,18.23
2018-10-01T13:21:17.633Z,17.90
2018-10-01T13:23:47.486Z,18.20
2018-10-01T13:26:17.469Z,18.33
2018-10-01T13:28:47.475Z,18.00
2018-10-01T13:31:17.391Z,17.20
2018-10-01T13:33:47.396Z,17.67
2018-10-01T13:36:17.306Z,15.87
2018-10-01T13:38:47.231Z,16.53
2018-10-01T13:41:17.090Z,15.97
2018-10-01T13:43:47.006Z,15.33
2018-10-01T13:46:17.049Z,15.77
2018-10-01T13:48:46.931Z,17.07
2018-10-01T13:51:16.854Z,15.00
2018-10-01T13:53:46.685Z,15.77
2018-10-01T13:56:16.541Z,14.93
2018-10-01T13:58:46.548Z,14.53
2018-10-01T14:01:16.417Z,14.43
2018-10-01T14:03:46.350Z,13.70
2018-10-01T14:06:16.557Z,12.70
2018-10-01T14:08:46.477Z,14.60
2018-10-01T14:11:16.349Z,14.13
2018-10-01T14:13:46.278Z,13.27
2018-10-01T14:16:16.170Z,13.50
2018-10-01T14:18:46.003Z,14.00
2018-10-01T14:21:15.773Z,17.03
2018-10-01T14:23:45.731Z,17.17
2018-10-01T14:26:15.739Z,19.07
2018-10-01T14:28:45.683Z,18.60
2018-10-01T14:31:15.643Z,17.57
2018-10-01T14:33:45.467Z,17.57
2018-10-01T14:36:15.436Z,17.50
2018-10-01T14:38:45.383Z,16.97
2018-10-01T14:41:15.261Z,15.73
2018-10-01T14:43:45.028Z,15.73
2018-10-01T14:46:14.844Z,15.10
2018-10-01T14:48:44.637Z,14.23
2018-10-01T14:51:14.592Z,13.83
2018-10-01T14:53:44.577Z,15.03
2018-10-01T14:56:14.387Z,14.40
2018-10-01T14:58:44.142Z,14.20
2018-10-01T15:01:14.021Z,14.47
2018-10-01T15:03:43.854Z,12.80
2018-10-01T15:06:13.807Z,12.77
2018-10-01T15:08:43.867Z,13.80
2018-10-01T15:11:13.773Z,12.67
2018-10-01T15:13:43.744Z,13.57
2018-10-01T15:16:13.595Z,14.17
2018-10-01T15:18:43.548Z,13.50
2018-10-01T15:21:13.336Z,13.20
2018-10-01T15:23:43.102Z,13.47
2018-10-01T15:26:12.947Z,13.10
2018-10-01T15:28:42.736Z,13.30
2018-10-01T15:31:12.624Z,14.33
2018-10-01T15:33:42.430Z,14.20
2018-10-01T15:36:12.339Z,12.67
2018-10-01T15:38:42.284Z,12.67
2018-10-01T15:41:12.098Z,14.07
2018-10-01T15:43:41.972Z,14.30
2018-10-01T15:46:11.789Z,13.70
2018-10-01T15:48:41.615Z,13.73
2018-10-01T15:51:11.512Z,15.17
2018-10-01T15:53:41.342Z,17.60
2018-10-01T15:56:11.170Z,16.07
2018-10-01T15:58:40.984Z,14.47
2018-10-01T16:01:10.782Z,14.43
2018-10-01T16:03:40.948Z,15.10
2018-10-01T16:06:10.711Z,14.73
2018-10-01T16:08:40.702Z,13.87
2018-10-01T16:11:10.530Z,13.50
2018-10-01T16:13:40.626Z,14.30
2018-10-01T16:16:10.542Z,14.57
2018-10-01T16:18:40.314Z,13.93
2018-10-01T16:23:45.297Z,13.17
2018-10-01T16:26:15.062Z,14.10
2018-10-01T16:28:44.869Z,13.50
2018-10-01T16:31:14.688Z,12.83
2018-10-01T16:33:44.574Z,14.40
2018-10-01T16:36:14.411Z,13.67
2018-10-01T16:38:44.215Z,13.90
2018-10-01T16:46:24.028Z,14.77
2018-10-01T16:48:53.852Z,14.20
2018-10-01T16:51:23.674Z,14.43
2018-10-01T16:53:53.497Z,15.63
2018-10-01T16:56:23.521Z,15.43
2018-10-01T16:58:53.478Z,14.97
2018-10-01T17:01:23.342Z,15.33
2018-10-01T17:03:53.201Z,15.23
2018-10-01T17:06:27.934Z,14.70
2018-10-01T17:08:57.702Z,14.97
2018-10-01T17:11:28.044Z,14.93
2018-10-01T17:13:57.944Z,15.00
2018-10-01T17:16:27.832Z,15.50
2018-10-01T17:18:57.820Z,15.13
2018-10-01T17:21:27.680Z,15.90
2018-10-01T17:23:57.782Z,15.37
2018-10-01T17:26:27.588Z,15.23
2018-10-01T17:28:57.458Z,14.87
2018-10-01T17:31:27.256Z,15.37
2018-10-01T17:33:57.056Z,14.40
2018-10-01T17:36:26.872Z,15.10
2018-10-01T17:38:56.682Z,22.87
2018-10-01T17:41:26.520Z,15.80
2018-10-01T17:43:56.290Z,16.10
2018-10-01T17:46:26.233Z,15.87
2018-10-01T17:48:56.045Z,16.37
2018-10-01T17:51:26.070Z,17.07
2018-10-01T17:53:55.896Z,16.33
2018-10-01T17:56:25.749Z,16.20
2018-10-01T17:58:55.708Z,16.70
2018-10-01T18:01:25.500Z,15.17
2018-10-01T18:03:55.263Z,16.03
2018-10-01T18:06:26.861Z,15.97
2018-10-01T18:08:56.652Z,15.90
2018-10-01T18:11:26.422Z,15.30
2018-10-01T18:13:56.430Z,14.83
2018-10-01T18:16:26.249Z,15.63
2018-10-01T18:18:56.025Z,15.53
2018-10-01T18:21:25.824Z,14.93
2018-10-01T18:23:55.683Z,14.83
2018-10-01T18:26:25.728Z,15.30
2018-10-01T18:28:55.786Z,14.80
2018-10-01T18:31:25.651Z,15.20
2018-10-01T18:33:55.467Z,14.87
2018-10-01T18:36:25.261Z,14.57
2018-10-01T18:38:55.048Z,15.60
2018-10-01T18:41:24.929Z,14.90
2018-10-01T18:43:55.082Z,15.13
2018-10-01T18:46:24.880Z,14.73
2018-10-01T18:48:54.702Z,14.60
2018-10-01T18:51:24.531Z,14.17
2018-10-01T18:53:54.394Z,14.07
2018-10-01T18:56:24.374Z,14.40
2018-10-01T18:58:54.168Z,13.13
2018-10-01T19:01:23.960Z,13.77
2018-10-01T19:03:53.861Z,12.63
2018-10-01T19:06:23.881Z,12.80
2018-10-01T19:08:53.934Z,11.83
2018-10-01T19:11:23.797Z,11.53
2018-10-01T19:13:53.664Z,11.33
2018-10-01T19:16:23.434Z,11.33
2018-10-01T19:18:53.316Z,10.83
2018-10-01T19:21:23.172Z,10.87
2018-10-01T19:23:53.341Z,11.07
2018-10-01T19:26:23.298Z,11.30
2018-10-01T19:28:53.110Z,11.40
2018-10-01T19:31:22.990Z,11.50
2018-10-01T19:33:53.345Z,12.73
2018-10-01T19:36:23.183Z,11.27
2018-10-01T19:38:53.078Z,11.53
2018-10-01T19:41:23.078Z,12.53
2018-10-01T19:43:52.849Z,11.27
2018-10-01T19:46:22.639Z,15.07
2018-10-01T19:48:52.457Z,15.47
2018-10-01T19:51:22.338Z,13.50
2018-10-01T19:53:52.359Z,13.73
2018-10-01T19:56:22.293Z,13.27
2018-10-01T19:58:52.080Z,15.10
2018-10-01T20:01:22.057Z,14.23
2018-10-01T20:03:51.902Z,14.63
2018-10-01T20:06:21.715Z,16.20
2018-10-01T20:08:51.600Z,15.00
2018-10-01T20:11:21.588Z,13.20
2018-10-01T20:13:51.547Z,11.90
2018-10-01T20:16:21.397Z,11.57
2018-10-01T20:18:51.239Z,11.93
2018-10-01T20:21:21.146Z,12.20
2018-10-01T20:23:51.069Z,12.13
2018-10-01T20:26:21.042Z,12.37
2018-10-01T20:28:51.210Z,11.90
2018-10-01T20:31:20.972Z,13.77
2018-10-01T20:33:50.750Z,12.30
2018-10-01T20:36:20.904Z,10.63
2018-10-01T20:38:50.864Z,10.53
2018-10-01T20:41:20.732Z,10.33
2018-10-01T20:43:50.706Z,10.33
2018-10-01T20:46:20.787Z,10.77
2018-10-01T20:48:50.615Z,10.60
2018-10-01T20:51:20.437Z,11.20
2018-10-01T20:53:50.346Z,12.27
2018-10-01T20:56:20.359Z,11.37
2018-10-01T20:58:50.354Z,10.67
2018-10-01T21:01:20.297Z,10.93
2018-10-01T21:03:50.101Z,10.33
2018-10-01T21:06:19.922Z,9.93
2018-10-01T21:08:49.795Z,10.50
2018-10-01T21:11:19.669Z,9.83
2018-10-01T21:13:49.623Z,10.67
2018-10-01T21:16:19.379Z,10.00
2018-10-01T21:18:49.237Z,9.40
2018-10-01T21:21:19.073Z,9.97
2018-10-01T21:23:48.857Z,8.87
2018-10-01T21:26:18.661Z,9.47
2018-10-01T21:28:48.447Z,9.50
2018-10-01T21:31:18.285Z,9.67
2018-10-01T21:33:48.113Z,9.53
2018-10-01T21:36:18.090Z,9.37
2018-10-01T21:38:47.885Z,8.57
2018-10-01T21:41:17.689Z,9.30
2018-10-01T21:43:47.672Z,8.93
2018-10-01T21:46:17.484Z,9.47
2018-10-01T21:48:47.368Z,9.90
2018-10-01T21:51:17.215Z,10.03
2018-10-01T21:53:47.025Z,9.37
2018-10-01T21:56:16.790Z,9.37
2018-10-01T21:58:46.579Z,9.40
2018-10-01T22:01:21.724Z,8.93
2018-10-01T22:03:51.496Z,9.23
2018-10-01T22:06:21.354Z,9.43
2018-10-01T22:08:51.153Z,9.20
2018-10-01T22:11:20.919Z,9.63
2018-10-01T22:13:50.811Z,8.67
2018-10-01T22:16:20.620Z,8.40
2018-10-01T22:18:50.479Z,8.03
2018-10-01T22:21:20.261Z,7.23
2018-10-01T22:23:50.049Z,6.00
2018-10-01T22:26:19.951Z,5.33
2018-10-01T22:28:49.774Z,5.37
2018-10-01T22:31:19.606Z,4.43
2018-10-01T22:33:49.425Z,4.20
2018-10-01T22:36:19.335Z,3.50
2018-10-01T22:38:49.206Z,3.43
2018-10-01T22:41:19.028Z,2.90
2018-10-01T22:43:48.812Z,2.90
2018-10-01T22:46:18.645Z,2.43
2018-10-01T22:48:48.595Z,2.50
2018-10-01T22:51:18.353Z,2.30
2018-10-01T22:53:48.192Z,2.50
2018-10-01T22:56:17.951Z,2.17
2018-10-01T22:58:47.730Z,2.10
2018-10-01T23:01:17.602Z,2.13
2018-10-01T23:03:47.366Z,2.10
2018-10-01T23:06:17.161Z,1.97
2018-10-01T23:08:46.968Z,1.90
2018-10-01T23:11:16.852Z,1.90
2018-10-01T23:13:46.616Z,2.10
2018-10-01T23:16:16.434Z,1.80
2018-10-01T23:18:46.272Z,2.00
2018-10-01T23:21:16.085Z,2.50
2018-10-01T23:23:46.127Z,2.10
2018-10-01T23:26:15.871Z,2.60
2018-10-01T23:28:45.670Z,2.30
2018-10-01T23:31:15.537Z,2.10
2018-10-01T23:33:45.288Z,2.50
2018-10-01T23:36:15.300Z,2.40
2018-10-01T23:38:45.081Z,2.37
2018-10-01T23:41:14.865Z,2.37
2018-10-01T23:43:44.686Z,2.63
2018-10-01T23:46:14.496Z,2.37
2018-10-01T23:48:44.276Z,2.13
2018-10-01T23:51:14.098Z,2.53
2018-10-01T23:53:43.886Z,1.93
2018-10-01T23:56:13.752Z,1.90
2018-10-01T23:58:43.577Z,2.20
